Time;durP1;ratioP1;P1;durP2;ratioP2;P2;SDS_P1;SDS_P2;PMS_P1;PMS_P2;Temp;Humidity;BMP_temperature;BMP_pressure;BME280_temperature;BME280_humidity;BME280_pressure;Samples;Min_cycle;Max_cycle;Signal;HPM_P1;HPM_P2
2023/09/03 00:01:34;;;;;;;0.10;0.10;;;15.80;99.90;;;;;;5038877;28;20205;-76
2023/09/03 00:03:59;;;;;;;0.03;0.03;;;15.80;99.90;;;;;;5038995;28;20032;-75
2023/09/03 00:06:26;;;;;;;0.03;0.03;;;15.80;99.90;;;;;;5037529;28;20096;-79
2023/09/03 00:08:51;;;;;;;0.10;0.10;;;15.80;99.90;;;;;;5038795;28;20047;-76
2023/09/03 00:11:17;;;;;;;0.98;0.95;;;15.70;99.90;;;;;;5038813;28;20068;-77
2023/09/03 00:13:43;;;;;;;0.10;0.10;;;15.10;99.90;;;;;;5038966;28;20029;-76
2023/09/03 00:16:09;;;;;;;0.10;0.10;;;15.60;99.90;;;;;;5038776;28;20121;-77
2023/09/03 00:18:37;;;;;;;0.47;0.47;;;15.50;99.90;;;;;;5037468;28;20570;-77
2023/09/03 00:21:05;;;;;;;0.10;0.10;;;15.50;99.90;;;;;;5037207;28;20117;-76
2023/09/03 00:23:31;;;;;;;0.10;0.10;;;15.40;99.90;;;;;;5038755;28;20108;-78
2023/09/03 00:25:58;;;;;;;0.17;0.17;;;15.40;99.90;;;;;;5040004;28;20064;-76
2023/09/03 00:28:25;;;;;;;1.85;1.75;;;15.40;99.90;;;;;;5058906;28;20055;-76
2023/09/03 00:31:05;;;;;;;0.10;0.10;;;15.40;99.90;;;;;;5058678;28;20482;-81
2023/09/03 00:33:31;;;;;;;0.00;0.00;;;15.30;99.90;;;;;;5040659;28;20028;-78
2023/09/03 00:36:00;;;;;;;0.10;0.10;;;15.30;99.90;;;;;;5023464;28;20025;-76
2023/09/03 00:38:25;;;;;;;0.10;0.10;;;15.30;99.90;;;;;;5040479;28;20017;-76
2023/09/03 00:40:51;;;;;;;0.00;0.00;;;15.30;99.90;;;;;;5058290;28;20029;-76
2023/09/03 00:43:17;;;;;;;0.10;0.10;;;15.30;99.90;;;;;;5058097;28;20078;-76
2023/09/03 00:45:45;;;;;;;0.10;0.10;;;15.30;99.90;;;;;;5058076;28;20370;-76
2023/09/03 00:48:14;;;;;;;0.10;0.10;;;15.20;99.90;;;;;;5057974;28;20131;-76
2023/09/03 00:50:41;;;;;;;0.10;0.10;;;15.20;99.90;;;;;;5040411;28;20440;-76
2023/09/03 00:53:09;;;;;;;0.08;0.08;;;15.10;99.90;;;;;;5039946;28;20035;-76
2023/09/03 00:55:36;;;;;;;0.00;0.00;;;15.10;99.90;;;;;;5040080;28;20023;-78
2023/09/03 00:58:04;;;;;;;0.08;0.08;;;15.10;99.90;;;;;;5057977;28;20109;-76
2023/09/03 01:00:30;;;;;;;0.00;0.00;;;15.00;99.90;;;;;;5058255;28;20433;-76
2023/09/03 01:02:56;;;;;;;0.10;0.10;;;15.00;99.90;;;;;;5057615;28;20024;-76
2023/09/03 01:05:21;;;;;;;0.00;0.00;;;15.00;99.90;;;;;;5058152;28;20617;-79
2023/09/03 01:07:49;;;;;;;0.10;0.10;;;15.00;99.90;;;;;;5057667;28;20289;-76
2023/09/03 01:10:16;;;;;;;0.10;0.10;;;14.80;99.90;;;;;;5039562;28;20021;-76
2023/09/03 01:13:20;;;;;;;0.10;0.10;;;15.00;99.90;;;;;;5039508;28;20071;-76
2023/09/03 01:15:49;;;;;;;0.20;0.20;;;14.90;99.90;;;;;;5039709;28;20027;-76
2023/09/03 01:18:21;;;;;;;0.00;0.00;;;14.90;99.90;;;;;;5039610;28;20024;-76
2023/09/03 01:21:20;;;;;;;0.00;0.00;;;14.90;99.90;;;;;;5057548;28;20386;-76
2023/09/03 01:24:13;;;;;;;0.00;0.00;;;14.80;99.90;;;;;;5057538;28;20694;-77
2023/09/03 01:26:48;;;;;;;0.00;0.00;;;14.80;99.90;;;;;;5057229;28;20052;-76
2023/09/03 01:29:16;;;;;;;0.10;0.10;;;14.80;99.90;;;;;;5057510;28;20029;-76
2023/09/03 01:31:43;;;;;;;0.10;0.10;;;14.90;99.90;;;;;;5057369;28;20052;-76
2023/09/03 01:34:11;;;;;;;0.10;0.10;;;14.70;99.90;;;;;;5039257;28;20055;-77
2023/09/03 01:36:38;;;;;;;0.10;0.10;;;14.70;99.90;;;;;;5057164;28;20032;-76
2023/09/03 01:39:03;;;;;;;0.00;0.00;;;14.70;99.90;;;;;;5057079;28;20364;-76
2023/09/03 01:41:38;;;;;;;0.00;0.00;;;14.70;99.90;;;;;;5057268;28;20510;-76
2023/09/03 01:44:08;;;;;;;0.10;0.10;;;14.70;99.90;;;;;;5057182;28;20475;-76
2023/09/03 01:46:45;;;;;;;0.47;0.47;;;14.70;99.90;;;;;;5056912;28;20046;-77
2023/09/03 01:49:41;;;;;;;0.10;0.10;;;14.70;99.90;;;;;;5056429;28;20056;-76
2023/09/03 01:52:26;;;;;;;0.03;0.03;;;14.70;99.90;;;;;;5056973;28;20016;-77
2023/09/03 01:54:55;;;;;;;0.00;0.00;;;14.70;99.90;;;;;;5038995;28;20538;-76
2023/09/03 01:57:36;;;;;;;0.10;0.10;;;14.70;99.90;;;;;;5039042;28;20489;-79
2023/09/03 02:00:12;;;;;;;0.10;0.10;;;14.70;99.90;;;;;;5057093;28;20064;-77
2023/09/03 02:02:42;;;;;;;0.05;0.05;;;14.70;99.90;;;;;;5038811;28;20678;-76
2023/09/03 02:05:08;;;;;;;0.10;0.10;;;14.70;99.90;;;;;;5057078;28;20043;-76
2023/09/03 02:07:34;;;;;;;0.10;0.10;;;14.60;99.90;;;;;;5056921;28;20025;-76
2023/09/03 02:10:00;;;;;;;0.10;0.10;;;14.60;99.90;;;;;;5022673;28;20410;-76
2023/09/03 02:12:26;;;;;;;1.17;1.17;;;14.60;99.90;;;;;;5056851;28;20028;-75
2023/09/03 02:14:52;;;;;;;3.67;3.45;;;14.60;99.90;;;;;;5038673;28;20381;-77
2023/09/03 02:17:21;;;;;;;0.00;0.00;;;14.60;99.90;;;;;;5056733;28;20052;-76
2023/09/03 02:19:49;;;;;;;0.08;0.08;;;14.60;99.90;;;;;;5039090;28;20017;-75
2023/09/03 02:22:15;;;;;;;0.10;0.10;;;14.60;99.90;;;;;;5022455;28;20040;-76
2023/09/03 02:24:41;;;;;;;0.10;0.10;;;14.50;99.90;;;;;;5038140;28;20032;-76
2023/09/03 02:27:08;;;;;;;0.00;0.00;;;14.50;99.90;;;;;;5056554;28;20044;-75
2023/09/03 02:29:34;;;;;;;0.10;0.10;;;14.50;99.90;;;;;;5071982;28;20056;-75
2023/09/03 02:32:00;;;;;;;0.10;0.10;;;14.50;99.90;;;;;;5056481;28;20221;-75
2023/09/03 02:34:25;;;;;;;0.10;0.10;;;14.50;99.90;;;;;;5056732;28;20125;-77
2023/09/03 02:36:51;;;;;;;0.10;0.10;;;14.40;99.90;;;;;;5056429;28;20063;-78
2023/09/03 02:39:17;;;;;;;0.10;0.10;;;14.30;99.90;;;;;;5038553;28;20031;-75
2023/09/03 02:41:43;;;;;;;0.00;0.00;;;14.30;99.90;;;;;;5056627;28;20096;-75
2023/09/03 02:44:09;;;;;;;0.15;0.15;;;14.30;99.90;;;;;;5056651;28;20035;-76
2023/09/03 02:46:35;;;;;;;0.95;0.95;;;14.30;99.90;;;;;;5056446;28;20111;-80
2023/09/03 02:49:02;;;;;;;0.30;0.30;;;14.30;99.90;;;;;;5056522;28;20144;-77
2023/09/03 02:51:28;;;;;;;0.10;0.10;;;14.30;99.90;;;;;;5056735;28;20563;-75
2023/09/03 02:53:55;;;;;;;0.10;0.10;;;14.30;99.90;;;;;;5038668;28;20450;-76
2023/09/03 02:56:22;;;;;;;0.10;0.10;;;13.80;99.90;;;;;;5038493;28;20086;-79
2023/09/03 02:58:49;;;;;;;0.10;0.10;;;14.20;99.90;;;;;;5026641;28;20028;-77
2023/09/03 03:01:17;;;;;;;0.00;0.00;;;14.30;99.90;;;;;;5064993;28;20092;-76
2023/09/03 03:03:44;;;;;;;0.00;0.00;;;14.40;99.90;;;;;;5061774;28;20390;-76
2023/09/03 03:06:10;;;;;;;0.10;0.10;;;14.20;99.90;;;;;;5060239;28;20246;-75
2023/09/03 03:08:36;;;;;;;0.10;0.10;;;14.20;99.90;;;;;;5059948;28;20025;-76
2023/09/03 03:11:14;;;;;;;0.08;0.08;;;14.20;99.90;;;;;;5042303;28;20020;-76
2023/09/03 03:13:41;;;;;;;0.30;0.30;;;14.00;99.90;;;;;;5042272;28;20043;-75
2023/09/03 03:16:08;;;;;;;6.75;2.92;;;13.70;99.90;;;;;;5059845;28;20020;-75
2023/09/03 03:18:36;;;;;;;0.10;0.10;;;15.20;99.90;;;;;;5042211;28;20048;-76
2023/09/03 03:21:18;;;;;;;0.10;0.10;;;13.90;99.90;;;;;;5042018;28;20134;-77
2023/09/03 03:23:47;;;;;;;0.10;0.10;;;13.80;99.90;;;;;;5060042;28;20470;-78
2023/09/03 03:26:13;;;;;;;0.10;0.10;;;13.80;99.90;;;;;;5059542;28;20675;-76
2023/09/03 03:28:39;;;;;;;0.10;0.10;;;13.40;99.90;;;;;;5060051;28;20318;-76
2023/09/03 03:31:18;;;;;;;0.05;0.05;;;13.80;99.90;;;;;;5059877;28;20485;-78
2023/09/03 03:33:45;;;;;;;0.00;0.00;;;13.80;99.90;;;;;;5059606;28;20426;-79
2023/09/03 03:36:16;;;;;;;0.10;0.10;;;13.80;99.90;;;;;;5059592;28;20024;-76
2023/09/03 03:38:42;;;;;;;1.35;1.35;;;13.80;99.90;;;;;;5059771;28;20233;-76
2023/09/03 03:41:18;;;;;;;0.10;0.10;;;13.80;99.90;;;;;;5059634;28;20013;-75
2023/09/03 03:43:46;;;;;;;0.10;0.10;;;13.80;99.90;;;;;;5059552;28;20347;-78
2023/09/03 03:46:14;;;;;;;0.00;0.00;;;13.80;99.90;;;;;;5041733;28;20077;-76
2023/09/03 03:48:41;;;;;;;0.10;0.10;;;13.80;99.90;;;;;;5041391;28;20062;-76
2023/09/03 03:51:07;;;;;;;0.10;0.10;;;13.90;99.90;;;;;;5059332;28;20494;-81
2023/09/03 03:53:32;;;;;;;0.20;0.20;;;13.80;99.90;;;;;;5059263;28;20070;-77
2023/09/03 03:55:58;;;;;;;0.52;0.52;;;13.80;99.90;;;;;;5059399;28;20039;-83
2023/09/03 03:58:25;;;;;;;0.00;0.00;;;13.90;99.90;;;;;;5059331;28;20020;-79
2023/09/03 04:00:51;;;;;;;0.10;0.10;;;13.60;99.90;;;;;;5059279;28;20364;-77
2023/09/03 04:03:17;;;;;;;0.00;0.00;;;13.70;99.90;;;;;;5059216;28;20082;-77
2023/09/03 04:05:42;;;;;;;0.00;0.00;;;13.70;99.90;;;;;;5041404;28;20214;-76
2023/09/03 04:08:08;;;;;;;0.10;0.10;;;13.70;99.90;;;;;;5058918;28;20047;-77
2023/09/03 04:10:34;;;;;;;0.10;0.10;;;13.70;99.90;;;;;;5058208;28;20013;-77
2023/09/03 04:13:00;;;;;;;0.10;0.10;;;13.70;99.90;;;;;;5059074;28;20082;-76
2023/09/03 04:15:25;;;;;;;0.82;0.82;;;13.70;99.90;;;;;;5058974;28;20055;-76
2023/09/03 04:17:51;;;;;;;0.10;0.10;;;13.70;99.90;;;;;;5041025;28;20046;-76
2023/09/03 04:20:17;;;;;;;0.10;0.10;;;13.70;99.90;;;;;;5058963;28;20519;-76
2023/09/03 04:22:43;;;;;;;0.20;0.20;;;13.70;99.90;;;;;;5041123;28;20039;-81
2023/09/03 04:25:09;;;;;;;0.10;0.10;;;13.80;99.90;;;;;;5059032;28;20532;-76
2023/09/03 04:27:34;;;;;;;5.55;5.15;;;11.60;99.90;;;;;;5023846;28;20044;-89
2023/09/03 04:30:00;;;;;;;0.22;0.22;;;13.80;99.90;;;;;;5058916;28;20059;-77
2023/09/03 04:32:26;;;;;;;0.10;0.10;;;13.80;99.90;;;;;;5058790;28;20514;-77
2023/09/03 04:34:52;;;;;;;0.10;0.10;;;;;;;;;;5040647;28;20410;-77
2023/09/03 04:37:18;;;;;;;0.10;0.10;;;13.80;99.90;;;;;;5058806;28;20388;-78
2023/09/03 04:39:44;;;;;;;0.00;0.00;;;13.80;99.90;;;;;;5058603;28;20050;-77
2023/09/03 04:42:10;;;;;;;0.10;0.10;;;13.80;99.90;;;;;;5058527;28;20313;-76
2023/09/03 04:44:38;;;;;;;0.00;0.00;;;13.80;99.90;;;;;;5059088;28;20362;-76
2023/09/03 04:47:05;;;;;;;0.10;0.10;;;13.70;99.90;;;;;;5059126;28;20559;-77
2023/09/03 04:49:33;;;;;;;0.00;0.00;;;13.70;99.90;;;;;;5058532;28;20673;-77
2023/09/03 04:51:58;;;;;;;0.20;0.20;;;13.70;99.90;;;;;;5058437;28;20040;-77
2023/09/03 04:54:24;;;;;;;0.05;0.05;;;13.60;99.90;;;;;;5058529;28;20545;-77
2023/09/03 04:56:52;;;;;;;0.00;0.00;;;11.70;99.90;;;;;;5058752;28;20024;-77
2023/09/03 04:59:17;;;;;;;0.10;0.10;;;13.70;99.90;;;;;;5060784;28;20070;-82
2023/09/03 05:01:43;;;;;;;0.10;0.10;;;13.70;99.90;;;;;;5060308;28;20032;-77
2023/09/03 05:04:09;;;;;;;0.10;0.10;;;13.80;99.90;;;;;;5060463;28;20674;-77
2023/09/03 05:06:35;;;;;;;0.10;0.10;;;13.80;99.90;;;;;;5059575;28;20097;-77
2023/09/03 05:09:01;;;;;;;0.00;0.00;;;13.90;99.90;;;;;;5059680;28;20020;-77
2023/09/03 05:11:27;;;;;;;0.10;0.10;;;13.90;99.90;;;;;;5059959;28;20453;-76
2023/09/03 05:13:53;;;;;;;7.78;5.57;;;13.90;99.90;;;;;;5060288;28;20021;-76
2023/09/03 05:16:18;;;;;;;0.10;0.10;;;13.90;99.90;;;;;;5058825;28;20056;-76
2023/09/03 05:18:44;;;;;;;0.10;0.10;;;13.90;99.90;;;;;;5040722;28;20146;-83
2023/09/03 05:21:11;;;;;;;0.05;0.05;;;13.90;99.90;;;;;;5058254;28;20035;-76
2023/09/03 05:23:37;;;;;;;0.10;0.10;;;13.80;99.90;;;;;;5073786;28;20028;-88
2023/09/03 05:26:03;;;;;;;0.10;0.10;;;13.90;99.90;;;;;;5057990;28;20046;-76
2023/09/03 05:28:32;;;;;;;0.00;0.00;;;13.20;99.90;;;;;;5057736;28;20087;-89
2023/09/03 05:30:57;;;;;;;0.00;0.00;;;14.10;99.90;;;;;;5058598;28;20016;-77
2023/09/03 05:33:23;;;;;;;0.10;0.10;;;14.10;99.90;;;;;;5058086;28;20395;-77
2023/09/03 05:35:49;;;;;;;0.10;0.10;;;14.10;99.90;;;;;;5058474;28;20280;-79
2023/09/03 05:38:15;;;;;;;0.10;0.10;;;14.20;99.90;;;;;;5024393;28;20077;-75
2023/09/03 05:40:41;;;;;;;0.10;0.10;;;13.50;99.90;;;;;;5058627;28;20043;-80
2023/09/03 05:43:07;;;;;;;0.10;0.10;;;14.20;99.90;;;;;;5040293;28;20012;-85
2023/09/03 05:45:32;;;;;;;0.10;0.10;;;14.30;99.90;;;;;;5058534;28;20021;-78
2023/09/03 05:47:58;;;;;;;0.10;0.10;;;14.40;99.90;;;;;;5058061;28;20509;-79
2023/09/03 05:50:24;;;;;;;0.10;0.10;;;14.50;99.90;;;;;;5058451;28;20021;-77
2023/09/03 05:52:50;;;;;;;1.25;1.23;;;14.60;99.90;;;;;;5058401;28;20415;-84
2023/09/03 05:55:15;;;;;;;3.13;2.92;;;14.80;99.90;;;;;;5057924;28;20666;-78
2023/09/03 05:57:41;;;;;;;1.15;1.15;;;13.50;99.90;;;;;;5040493;28;20332;-79
2023/09/03 06:00:07;;;;;;;0.80;0.80;;;15.00;99.90;;;;;;5057374;28;20213;-76
2023/09/03 06:02:36;;;;;;;0.20;0.20;;;15.10;99.90;;;;;;5058407;28;20024;-77
2023/09/03 06:05:02;;;;;;;0.30;0.30;;;15.30;99.90;;;;;;5039656;28;20502;-84
2023/09/03 06:07:28;;;;;;;0.00;0.00;;;15.30;99.90;;;;;;5057905;28;20032;-79
2023/09/03 06:09:54;;;;;;;2.28;1.40;;;15.50;99.90;;;;;;5057820;28;20013;-76
2023/09/03 06:12:19;;;;;;;0.28;0.28;;;15.70;99.90;;;;;;5057562;28;20056;-78
2023/09/03 06:14:45;;;;;;;0.10;0.10;;;15.80;99.90;;;;;;5057566;28;20115;-81
2023/09/03 06:17:11;;;;;;;0.10;0.10;;;15.80;99.90;;;;;;5056913;28;20059;-79
2023/09/03 06:19:37;;;;;;;0.22;0.22;;;15.90;99.90;;;;;;5057220;28;20393;-84
2023/09/03 06:22:02;;;;;;;0.10;0.10;;;16.10;99.90;;;;;;5039921;28;20036;-78
2023/09/03 06:24:28;;;;;;;0.13;0.13;;;16.10;99.90;;;;;;5039227;28;20767;-74
2023/09/03 06:26:54;;;;;;;0.10;0.10;;;16.30;99.90;;;;;;5057503;28;20048;-77
2023/09/03 06:29:20;;;;;;;0.10;0.10;;;16.50;99.90;;;;;;5057420;28;20280;-83
2023/09/03 06:31:45;;;;;;;0.22;0.22;;;15.10;99.90;;;;;;5057174;28;20036;-76
2023/09/03 06:34:11;;;;;;;0.55;0.55;;;16.70;99.90;;;;;;5074527;28;20020;-78
2023/09/03 06:36:37;;;;;;;0.00;0.00;;;16.90;99.90;;;;;;5059590;28;20502;-78
2023/09/03 06:39:03;;;;;;;0.10;0.10;;;16.90;99.90;;;;;;5058286;28;20025;-81
2023/09/03 06:41:29;;;;;;;0.10;0.10;;;17.00;99.90;;;;;;5057065;28;20031;-79
2023/09/03 06:43:55;;;;;;;0.00;0.00;;;17.90;99.90;;;;;;5057332;28;20024;-77
2023/09/03 06:46:21;;;;;;;0.00;0.00;;;17.30;99.90;;;;;;5071942;28;20025;-78
2023/09/03 06:48:47;;;;;;;0.00;0.00;;;17.40;99.90;;;;;;5056862;28;20529;-78
2023/09/03 06:51:12;;;;;;;0.20;0.20;;;17.50;99.90;;;;;;5056559;28;20039;-77
2023/09/03 06:53:38;;;;;;;0.35;0.35;;;17.60;99.90;;;;;;5057272;28;20020;-76
2023/09/03 06:56:04;;;;;;;0.10;0.10;;;17.70;99.90;;;;;;5056860;28;20069;-79
2023/09/03 06:58:30;;;;;;;0.52;0.52;;;14.60;99.90;;;;;;5057210;28;20021;-79
2023/09/03 07:00:55;;;;;;;0.85;0.85;;;17.80;99.90;;;;;;5056252;28;20109;-79
2023/09/03 07:03:21;;;;;;;0.00;0.00;;;17.90;99.90;;;;;;5039042;28;20236;-81
2023/09/03 07:05:47;;;;;;;0.20;0.20;;;18.10;99.90;;;;;;5056317;28;20543;-77
2023/09/03 07:08:13;;;;;;;0.20;0.20;;;18.30;99.90;;;;;;5057147;28;20289;-77
2023/09/03 07:10:39;;;;;;;2.53;2.28;;;18.30;99.90;;;;;;5057612;28;20317;-77
2023/09/03 07:13:05;;;;;;;0.00;0.00;;;18.20;99.90;;;;;;5057110;28;20032;-78
2023/09/03 07:15:32;;;;;;;1.17;1.17;;;18.60;99.90;;;;;;5057730;28;20302;-77
2023/09/03 07:17:57;;;;;;;0.28;0.28;;;18.70;99.90;;;;;;5057815;28;20032;-79
2023/09/03 07:20:23;;;;;;;0.13;0.13;;;18.80;99.90;;;;;;5056669;28;20344;-78
2023/09/03 07:22:49;;;;;;;0.13;0.13;;;19.00;99.90;;;;;;5055991;28;20394;-78
2023/09/03 07:25:15;;;;;;;0.10;0.10;;;19.00;99.90;;;;;;5056295;28;20317;-77
2023/09/03 07:27:41;;;;;;;0.00;0.00;;;19.10;99.90;;;;;;5056159;28;20409;-77
2023/09/03 07:30:11;;;;;;;0.10;0.10;;;19.20;99.90;;;;;;5055720;28;20383;-77
2023/09/03 07:32:37;;;;;;;0.00;0.00;;;19.20;99.90;;;;;;5055886;28;20028;-77
2023/09/03 07:35:07;;;;;;;0.00;0.00;;;19.30;99.90;;;;;;5055689;28;20548;-77
2023/09/03 07:37:33;;;;;;;0.10;0.10;;;19.50;99.90;;;;;;5055841;28;20020;-78
2023/09/03 07:39:59;;;;;;;0.00;0.00;;;19.70;99.90;;;;;;5055172;28;20037;-77
2023/09/03 07:42:25;;;;;;;0.75;0.75;;;19.90;99.90;;;;;;5055653;28;20013;-77
2023/09/03 07:44:51;;;;;;;0.10;0.10;;;19.90;99.90;;;;;;5055672;28;20027;-83
2023/09/03 07:47:16;;;;;;;0.10;0.10;;;19.90;99.90;;;;;;5023932;28;20689;-77
2023/09/03 07:49:42;;;;;;;0.10;0.10;;;20.10;99.90;;;;;;5059405;28;20092;-77
2023/09/03 07:52:09;;;;;;;0.03;0.03;;;20.30;99.90;;;;;;5059311;28;20099;-79
2023/09/03 07:54:35;;;;;;;0.20;0.20;;;20.40;99.90;;;;;;5059335;28;20213;-78
2023/09/03 07:57:01;;;;;;;0.10;0.10;;;20.50;99.90;;;;;;5059236;28;20313;-78
2023/09/03 07:59:27;;;;;;;1.45;0.85;;;20.60;99.90;;;;;;5059252;28;20503;-78
2023/09/03 08:01:52;;;;;;;0.85;0.85;;;20.70;99.90;;;;;;5059033;28;20039;-77
2023/09/03 08:04:18;;;;;;;0.10;0.10;;;21.70;99.90;;;;;;5059035;28;20029;-78
2023/09/03 08:06:44;;;;;;;0.68;0.68;;;21.20;99.90;;;;;;5059136;28;20453;-78
2023/09/03 08:09:10;;;;;;;0.10;0.10;;;20.40;99.90;;;;;;5058900;28;20054;-78
2023/09/03 08:11:36;;;;;;;0.80;0.73;;;21.30;99.90;;;;;;5058814;28;20025;-77
2023/09/03 08:14:02;;;;;;;0.00;0.00;;;22.20;99.90;;;;;;5059048;28;20077;-77
2023/09/03 08:16:28;;;;;;;0.40;0.40;;;21.90;99.90;;;;;;5058759;28;20023;-80
2023/09/03 08:18:54;;;;;;;0.10;0.10;;;22.00;99.90;;;;;;5058786;28;20322;-77
2023/09/03 08:21:20;;;;;;;0.00;0.00;;;22.00;99.90;;;;;;5058869;28;20020;-77
2023/09/03 08:23:45;;;;;;;0.20;0.20;;;22.30;99.90;;;;;;5058917;28;20352;-79
2023/09/03 08:26:12;;;;;;;0.00;0.00;;;22.60;99.90;;;;;;5058914;28;20032;-79
2023/09/03 08:28:38;;;;;;;0.00;0.00;;;22.70;99.90;;;;;;5058882;28;20032;-79
2023/09/03 08:31:03;;;;;;;0.30;0.30;;;22.90;99.90;;;;;;5058690;28;20486;-78
2023/09/03 08:33:29;;;;;;;3.63;0.57;;;22.90;99.90;;;;;;5058747;28;20027;-78
2023/09/03 08:35:55;;;;;;;0.08;0.08;;;23.00;99.90;;;;;;5058974;28;20445;-78
2023/09/03 08:38:22;;;;;;;0.00;0.00;;;23.10;99.90;;;;;;5058843;28;20024;-77
2023/09/03 08:40:48;;;;;;;0.00;0.00;;;23.00;99.60;;;;;;5058732;28;20025;-77
2023/09/03 08:43:18;;;;;;;0.00;0.00;;;24.40;99.80;;;;;;5040614;28;20024;-77
2023/09/03 08:46:01;;;;;;;0.00;0.00;;;23.20;99.90;;;;;;5058567;28;20334;-78
2023/09/03 08:48:27;;;;;;;0.00;0.00;;;23.30;99.80;;;;;;5058649;28;20058;-80
2023/09/03 08:50:54;;;;;;;0.00;0.00;;;23.50;99.90;;;;;;5058742;28;20025;-82
2023/09/03 08:53:22;;;;;;;0.00;0.00;;;23.60;99.10;;;;;;5024055;28;20104;-78
2023/09/03 08:55:48;;;;;;;0.95;0.80;;;23.70;97.90;;;;;;5058285;28;20332;-79
2023/09/03 08:58:15;;;;;;;0.43;0.43;;;23.80;97.80;;;;;;5058096;28;20437;-78
2023/09/03 09:00:42;;;;;;;0.28;0.28;;;23.90;97.60;;;;;;5040169;28;20124;-80
2023/09/03 09:03:13;;;;;;;0.50;0.50;;;23.90;97.40;;;;;;5041548;28;20028;-79
2023/09/03 09:05:42;;;;;;;0.10;0.10;;;23.70;98.20;;;;;;5059534;28;20383;-77
2023/09/03 09:08:08;;;;;;;0.90;0.63;;;24.00;97.80;;;;;;5059775;28;20418;-79
2023/09/03 09:10:37;;;;;;;0.10;0.10;;;24.20;97.40;;;;;;5041866;28;20047;-79
2023/09/03 09:13:05;;;;;;;0.00;0.00;;;22.10;95.70;;;;;;5058621;28;20144;-81
2023/09/03 09:15:33;;;;;;;2.10;0.98;;;24.70;96.80;;;;;;5058833;28;20020;-78
2023/09/03 09:17:59;;;;;;;0.10;0.10;;;25.00;96.60;;;;;;5040100;28;20607;-75
2023/09/03 09:20:25;;;;;;;0.00;0.00;;;25.10;95.80;;;;;;5058200;28;20035;-77
2023/09/03 09:22:51;;;;;;;0.00;0.00;;;25.10;95.30;;;;;;5057971;28;20309;-75
2023/09/03 09:25:23;;;;;;;0.00;0.00;;;25.00;95.10;;;;;;5058319;28;20040;-78
2023/09/03 09:27:55;;;;;;;0.00;0.00;;;25.00;95.40;;;;;;5039534;28;20052;-77
2023/09/03 09:30:24;;;;;;;0.10;0.10;;;25.00;95.20;;;;;;5058856;28;20078;-79
2023/09/03 09:33:10;;;;;;;0.10;0.10;;;25.20;95.70;;;;;;5058656;28;20034;-78
2023/09/03 09:35:36;;;;;;;0.10;0.10;;;25.30;94.70;;;;;;5058004;28;20264;-78
2023/09/03 09:38:06;;;;;;;0.47;0.40;;;25.30;94.30;;;;;;5058287;28;20104;-81
2023/09/03 09:40:36;;;;;;;0.00;0.00;;;25.20;94.50;;;;;;5057461;28;20576;-76
2023/09/03 09:43:06;;;;;;;0.10;0.10;;;25.20;94.60;;;;;;5057792;28;20024;-76
2023/09/03 09:45:46;;;;;;;0.10;0.10;;;25.40;94.50;;;;;;5057436;28;20017;-75
2023/09/03 09:48:12;;;;;;;0.05;0.05;;;25.40;94.50;;;;;;5057050;28;20294;-77
2023/09/03 09:50:40;;;;;;;0.00;0.00;;;25.50;94.70;;;;;;5057536;28;20016;-76
2023/09/03 09:53:20;;;;;;;1.38;0.55;;;25.40;94.00;;;;;;5039366;28;20036;-75
2023/09/03 09:55:46;;;;;;;0.13;0.13;;;25.60;94.70;;;;;;5057500;28;20418;-76
2023/09/03 09:58:12;;;;;;;0.32;0.32;;;25.70;93.90;;;;;;5057612;28;20031;-76
2023/09/03 10:00:41;;;;;;;0.45;0.45;;;25.90;93.70;;;;;;5057197;28;20048;-76
2023/09/03 10:03:15;;;;;;;0.00;0.00;;;26.00;94.00;;;;;;5039000;28;20024;-76
2023/09/03 10:05:50;;;;;;;0.00;0.00;;;26.10;92.90;;;;;;5057430;28;20039;-76
2023/09/03 10:08:16;;;;;;;0.00;0.00;;;26.20;93.60;;;;;;5072521;28;20053;-76
2023/09/03 10:10:44;;;;;;;2.05;1.85;;;26.20;92.20;;;;;;5073661;28;20521;-77
2023/09/03 10:13:10;;;;;;;0.35;0.30;;;26.30;92.40;;;;;;5040645;28;20028;-75
2023/09/03 10:15:39;;;;;;;0.13;0.13;;;26.30;92.10;;;;;;5073122;28;20453;-77
2023/09/03 10:18:07;;;;;;;0.80;0.60;;;26.60;92.10;;;;;;5057290;28;20183;-76
2023/09/03 10:20:33;;;;;;;0.00;0.00;;;26.60;91.50;;;;;;5039734;28;20025;-79
2023/09/03 10:23:02;;;;;;;0.40;0.35;;;26.60;92.00;;;;;;5039530;28;20221;-76
2023/09/03 10:25:33;;;;;;;0.00;0.00;;;26.60;91.80;;;;;;5057562;28;20020;-77
2023/09/03 10:28:05;;;;;;;3.15;0.80;;;27.00;91.70;;;;;;5037637;28;20170;-78
2023/09/03 10:30:39;;;;;;;0.10;0.10;;;27.10;91.10;;;;;;5022775;28;20059;-76
2023/09/03 10:33:07;;;;;;;0.03;0.03;;;27.40;91.50;;;;;;5019534;28;20462;-78
2023/09/03 10:35:33;;;;;;;0.00;0.00;;;27.50;92.00;;;;;;5019746;28;20029;-75
2023/09/03 10:37:59;;;;;;;0.75;0.75;;;25.60;90.70;;;;;;5019840;28;20482;-76
2023/09/03 10:40:29;;;;;;;0.35;0.22;;;27.70;91.50;;;;;;5037314;28;20459;-75
2023/09/03 10:43:14;;;;;;;0.15;0.15;;;27.50;91.50;;;;;;5020201;28;20444;-75
2023/09/03 10:46:00;;;;;;;0.20;0.20;;;27.50;91.40;;;;;;5036919;28;20035;-75
2023/09/03 10:48:27;;;;;;;1.08;0.98;;;27.60;91.90;;;;;;5018846;28;20548;-74
2023/09/03 10:50:53;;;;;;;1.10;0.88;;;27.90;92.90;;;;;;5037096;28;20619;-78
2023/09/03 10:53:38;;;;;;;1.63;1.52;;;28.00;92.10;;;;;;5037241;28;20040;-76
2023/09/03 10:56:17;;;;;;;0.43;0.40;;;28.00;91.90;;;;;;5018880;28;20022;-76
2023/09/03 10:58:56;;;;;;;0.22;0.22;;;28.30;92.10;;;;;;5036939;28;20025;-77
2023/09/03 11:01:30;;;;;;;2.13;1.38;;;28.30;92.10;;;;;;5039138;28;20034;-76
2023/09/03 11:04:01;;;;;;;0.10;0.10;;;28.50;91.70;;;;;;5039603;28;20108;-76
2023/09/03 11:06:34;;;;;;;0.52;0.52;;;28.20;91.80;;;;;;5038792;28;20364;-76
2023/09/03 11:09:12;;;;;;;0.28;0.28;;;28.40;91.70;;;;;;5019191;28;20029;-77
2023/09/03 11:11:39;;;;;;;0.20;0.20;;;28.50;91.00;;;;;;5018921;28;20250;-76
2023/09/03 11:14:06;;;;;;;0.85;0.55;;;28.80;90.50;;;;;;5037032;28;20518;-77
2023/09/03 11:16:34;;;;;;;0.32;0.32;;;28.90;88.60;;;;;;5036777;28;20451;-76
2023/09/03 11:19:07;;;;;;;0.20;0.17;;;29.10;87.70;;;;;;5002400;28;20636;-76
2023/09/03 11:21:37;;;;;;;2.20;1.10;;;29.00;87.20;;;;;;5040320;28;20289;-76
2023/09/03 11:24:15;;;;;;;1.17;0.68;;;29.20;88.30;;;;;;5040701;28;20538;-79
2023/09/03 11:26:42;;;;;;;1.88;0.82;;;29.40;87.80;;;;;;5028097;28;20063;-81
2023/09/03 11:29:22;;;;;;;0.95;0.65;;;29.70;87.30;;;;;;5039335;28;20099;-77
2023/09/03 11:31:49;;;;;;;0.40;0.32;;;30.00;86.10;;;;;;5040607;28;20080;-76
2023/09/03 11:34:29;;;;;;;0.32;0.25;;;30.20;83.80;;;;;;5041266;28;20339;-78
2023/09/03 11:36:55;;;;;;;0.10;0.10;;;29.00;82.50;;;;;;5040612;28;20033;-76
2023/09/03 11:39:22;;;;;;;0.47;0.40;;;31.20;82.10;;;;;;5039117;28;20087;-78
2023/09/03 11:41:48;;;;;;;0.10;0.10;;;30.80;81.50;;;;;;5040519;28;20230;-75
2023/09/03 11:44:14;;;;;;;0.00;0.00;;;30.90;78.30;;;;;;5039102;28;20245;-77
2023/09/03 11:46:40;;;;;;;0.55;0.50;;;30.70;79.90;;;;;;5040451;28;20029;-76
2023/09/03 11:49:06;;;;;;;1.65;1.20;;;30.80;80.10;;;;;;5040299;28;20487;-75
2023/09/03 11:51:32;;;;;;;0.10;0.10;;;31.00;79.00;;;;;;5040311;28;20029;-77
2023/09/03 11:53:57;;;;;;;0.10;0.10;;;31.10;78.90;;;;;;5039086;28;20127;-75
2023/09/03 11:56:26;;;;;;;0.00;0.00;;;31.10;78.70;;;;;;5038636;28;20021;-78
2023/09/03 11:59:01;;;;;;;0.38;0.30;;;31.20;76.90;;;;;;5038773;28;20203;-77
2023/09/03 12:01:27;;;;;;;0.95;0.90;;;31.30;75.20;;;;;;5040266;28;20048;-77
2023/09/03 12:03:53;;;;;;;0.08;0.08;;;31.30;74.90;;;;;;5040315;28;20521;-81
2023/09/03 12:06:20;;;;;;;0.85;0.28;;;31.30;74.60;;;;;;5038807;28;20095;-78
2023/09/03 12:08:46;;;;;;;0.90;0.57;;;31.30;74.20;;;;;;5039778;28;20037;-76
2023/09/03 12:11:12;;;;;;;0.45;0.40;;;31.10;72.50;;;;;;5039871;28;20294;-77
2023/09/03 12:13:40;;;;;;;0.05;0.05;;;31.00;69.50;;;;;;5039678;28;20422;-77
2023/09/03 12:16:13;;;;;;;0.13;0.13;;;29.70;69.40;;;;;;5038544;28;20040;-77
2023/09/03 12:18:52;;;;;;;0.10;0.10;;;30.80;71.40;;;;;;5021833;28;20021;-78
2023/09/03 12:21:18;;;;;;;0.57;0.40;;;31.30;70.40;;;;;;5039677;28;20021;-77
2023/09/03 12:23:45;;;;;;;0.10;0.10;;;31.30;69.40;;;;;;5039627;28;20704;-78
2023/09/03 12:26:17;;;;;;;0.10;0.10;;;29.50;69.00;;;;;;5039383;28;20448;-90
2023/09/03 12:28:43;;;;;;;0.10;0.10;;;31.30;68.20;;;;;;5039325;28;20045;-77
2023/09/03 12:31:08;;;;;;;0.20;0.20;;;31.30;68.80;;;;;;5039413;28;20025;-75
2023/09/03 12:33:37;;;;;;;0.32;0.32;;;31.90;68.90;;;;;;5021048;28;20487;-75
2023/09/03 12:36:11;;;;;;;0.63;0.60;;;31.30;69.40;;;;;;5021380;28;20238;-76
2023/09/03 12:38:56;;;;;;;0.05;0.05;;;31.10;69.60;;;;;;5039583;28;20045;-77
2023/09/03 12:41:26;;;;;;;0.60;0.60;;;31.00;69.50;;;;;;5021408;28;20107;-79
2023/09/03 12:43:54;;;;;;;0.10;0.10;;;30.90;70.40;;;;;;5023849;28;20025;-77
2023/09/03 12:46:20;;;;;;;0.30;0.30;;;30.70;71.10;;;;;;5040594;28;20020;-77
2023/09/03 12:48:46;;;;;;;1.30;1.20;;;30.70;71.50;;;;;;5021289;28;20025;-77
2023/09/03 12:51:15;;;;;;;0.15;0.15;;;30.40;72.10;;;;;;5022253;28;20025;-81
2023/09/03 12:53:41;;;;;;;2.08;1.98;;;29.30;72.20;;;;;;5022150;28;20025;-76